createdAt,value
2023-01-18T00:01:03.929Z,33.97
2023-01-18T00:06:08.301Z,33.93
2023-01-18T00:11:12.719Z,33.23
2023-01-18T00:16:18.646Z,35.60
2023-01-18T00:21:21.638Z,34.93
2023-01-18T00:26:24.498Z,34.43
2023-01-18T00:31:28.796Z,34.40
2023-01-18T00:36:32.874Z,34.50
2023-01-18T00:41:55.691Z,34.83
2023-01-18T00:46:59.937Z,34.93
2023-01-18T00:52:02.853Z,34.70
2023-01-18T00:57:05.836Z,34.30
2023-01-18T01:02:10.260Z,35.90
2023-01-18T01:07:13.364Z,35.20
2023-01-18T01:12:33.621Z,33.83
2023-01-18T01:17:56.506Z,34.77
2023-01-18T01:23:26.061Z,34.80
2023-01-18T01:28:28.935Z,41.00
2023-01-18T01:33:34.390Z,36.08
2023-01-18T01:38:37.343Z,34.90
2023-01-18T01:43:43.182Z,35.80
2023-01-18T01:48:48.347Z,34.70
2023-01-18T01:53:52.215Z,34.55
2023-01-18T01:58:58.758Z,35.28
2023-01-18T02:04:04.164Z,35.47
2023-01-18T02:09:09.944Z,35.63
2023-01-18T02:14:16.416Z,34.53
2023-01-18T02:19:53.251Z,34.87
2023-01-18T02:25:38.687Z,34.40
2023-01-18T02:30:48.817Z,34.27
2023-01-18T02:35:54.808Z,33.13
2023-01-18T02:41:11.700Z,34.00
2023-01-18T02:46:30.704Z,34.17
2023-01-18T02:51:33.976Z,33.17
2023-01-18T02:56:40.488Z,33.43
2023-01-18T03:01:48.900Z,32.90
2023-01-18T03:06:58.668Z,32.97
2023-01-18T03:12:09.107Z,32.37
2023-01-18T03:17:20.167Z,33.23
2023-01-18T03:22:48.491Z,33.77
2023-01-18T03:28:12.743Z,34.80
2023-01-18T03:33:37.253Z,33.17
2023-01-18T03:38:43.302Z,32.70
2023-01-18T03:43:49.038Z,32.03
2023-01-18T03:48:53.368Z,32.13
2023-01-18T03:54:05.574Z,32.70
2023-01-18T03:59:09.611Z,32.63
2023-01-18T04:04:13.818Z,32.67
2023-01-18T04:09:16.695Z,32.23
2023-01-18T04:14:19.616Z,32.47
2023-01-18T04:19:23.893Z,32.13
2023-01-18T04:24:26.801Z,31.67
2023-01-18T04:29:30.131Z,32.90
2023-01-18T04:34:34.803Z,32.53
2023-01-18T04:39:42.803Z,33.90
2023-01-18T04:44:45.669Z,33.57
2023-01-18T04:49:50.030Z,32.97
2023-01-18T04:54:52.944Z,33.27
2023-01-18T04:59:55.879Z,33.03
2023-01-18T05:05:00.426Z,33.53
2023-01-18T05:10:03.511Z,33.53
2023-01-18T05:15:07.622Z,33.30
2023-01-18T05:20:13.104Z,33.73
2023-01-18T05:25:16.039Z,34.03
2023-01-18T05:30:19.122Z,34.27
2023-01-18T05:35:23.365Z,33.83
2023-01-18T05:40:26.348Z,32.97
2023-01-18T05:45:29.281Z,34.73
2023-01-18T05:50:41.703Z,33.33
2023-01-18T05:55:55.626Z,33.70
2023-01-18T06:00:58.925Z,33.53
2023-01-18T06:06:03.119Z,34.60
2023-01-18T06:11:07.749Z,34.93
2023-01-18T06:16:12.056Z,33.50
2023-01-18T06:21:19.413Z,33.03
2023-01-18T06:26:23.848Z,33.10
2023-01-18T06:31:26.814Z,33.33
2023-01-18T06:36:32.961Z,32.43
2023-01-18T06:41:35.819Z,31.93
2023-01-18T06:46:38.681Z,33.13
2023-01-18T06:51:42.900Z,31.97
2023-01-18T06:56:45.781Z,32.50
2023-01-18T07:01:48.834Z,32.67
2023-01-18T07:06:53.201Z,32.63
2023-01-18T07:11:56.084Z,32.80
2023-01-18T07:16:59.057Z,33.10
2023-01-18T07:22:03.392Z,33.17
2023-01-18T07:27:06.297Z,33.63
2023-01-18T07:32:09.242Z,32.73
2023-01-18T07:37:13.556Z,33.33
2023-01-18T07:42:16.435Z,32.93
2023-01-18T07:47:19.292Z,32.27
2023-01-18T07:52:23.505Z,33.37
2023-01-18T07:57:26.818Z,32.87
2023-01-18T08:02:29.774Z,32.53
2023-01-18T08:07:34.673Z,33.90
2023-01-18T08:12:37.560Z,33.30
2023-01-18T08:17:40.457Z,34.40
2023-01-18T08:22:44.706Z,33.23
2023-01-18T08:27:47.570Z,34.93
2023-01-18T08:32:50.907Z,33.90
2023-01-18T08:37:55.514Z,36.23
2023-01-18T08:43:00.020Z,37.17
2023-01-18T08:48:05.864Z,38.77
2023-01-18T08:53:10.218Z,37.23
2023-01-18T08:58:19.229Z,35.97
2023-01-18T09:03:22.969Z,35.23
2023-01-18T09:08:27.343Z,36.17
2023-01-18T09:13:30.284Z,37.20
2023-01-18T09:18:33.149Z,37.13
2023-01-18T09:23:39.936Z,36.07
2023-01-18T09:28:42.813Z,35.67
2023-01-18T09:33:53.534Z,36.30
2023-01-18T09:38:58.826Z,37.27
2023-01-18T09:44:04.079Z,38.20
2023-01-18T09:49:13.041Z,36.17
2023-01-18T09:54:29.334Z,35.87
2023-01-18T09:59:36.401Z,35.70
2023-01-18T10:04:44.545Z,34.60
2023-01-18T10:09:52.233Z,34.40
2023-01-18T10:15:03.800Z,34.63
2023-01-18T10:20:15.175Z,34.63
2023-01-18T10:25:30.693Z,34.07
2023-01-18T10:30:50.463Z,34.50
2023-01-18T10:35:57.631Z,34.47
2023-01-18T10:41:03.103Z,34.90
2023-01-18T10:46:14.502Z,35.67
2023-01-18T10:51:28.061Z,34.27
2023-01-18T10:56:32.344Z,34.13
2023-01-18T11:01:37.791Z,32.20
2023-01-18T11:06:49.584Z,34.73
2023-01-18T11:12:11.199Z,34.10
2023-01-18T11:17:17.265Z,33.93
2023-01-18T11:22:20.279Z,34.30
2023-01-18T11:27:26.288Z,34.57
2023-01-18T11:32:32.920Z,34.43
2023-01-18T11:37:37.951Z,33.43
2023-01-18T11:42:42.632Z,35.05
2023-01-18T11:47:57.536Z,35.50
2023-01-18T11:53:12.110Z,33.88
2023-01-18T11:58:24.479Z,35.00
2023-01-18T12:03:45.985Z,34.83
2023-01-18T12:09:09.000Z,34.92
2023-01-18T12:14:24.796Z,34.93
2023-01-18T12:19:48.875Z,35.07
2023-01-18T12:25:06.956Z,34.63
2023-01-18T12:30:23.356Z,34.27
2023-01-18T12:35:58.481Z,36.47
2023-01-18T12:41:33.682Z,35.73
2023-01-18T12:46:44.425Z,35.20
2023-01-18T12:51:50.920Z,34.43
2023-01-18T12:56:57.081Z,35.33
2023-01-18T13:02:06.800Z,34.77
2023-01-18T13:07:15.007Z,35.20
2023-01-18T13:12:18.466Z,37.77
2023-01-18T13:17:28.086Z,35.20
2023-01-18T13:22:41.868Z,35.75
2023-01-18T13:27:59.819Z,36.10
2023-01-18T13:33:17.259Z,35.63
2023-01-18T13:38:36.237Z,35.20
2023-01-18T13:44:05.852Z,35.80
2023-01-18T13:49:38.069Z,35.42
2023-01-18T13:55:06.268Z,35.37
2023-01-18T14:00:24.928Z,35.97
2023-01-18T14:05:35.651Z,35.75
2023-01-18T14:10:40.389Z,35.37
2023-01-18T14:15:53.248Z,35.80
2023-01-18T14:21:12.475Z,34.85
2023-01-18T14:26:17.680Z,35.13
2023-01-18T14:31:24.873Z,33.73
2023-01-18T14:36:41.476Z,34.20
2023-01-18T14:41:46.294Z,34.15
2023-01-18T14:46:51.174Z,36.67
2023-01-18T14:51:56.914Z,34.20
2023-01-18T14:57:03.882Z,34.80
2023-01-18T15:02:18.901Z,34.63
2023-01-18T15:07:28.932Z,36.17
2023-01-18T15:12:33.615Z,33.77
2023-01-18T15:17:38.157Z,33.93
2023-01-18T15:22:43.124Z,33.88
2023-01-18T15:27:51.244Z,35.30
2023-01-18T15:32:56.467Z,34.08
2023-01-18T15:38:02.313Z,33.53
2023-01-18T15:43:08.641Z,33.63
2023-01-18T15:48:17.471Z,34.13
2023-01-18T15:53:29.904Z,32.97
2023-01-18T15:58:37.950Z,34.37
2023-01-18T16:03:54.196Z,32.80
2023-01-18T16:09:10.542Z,33.30
2023-01-18T16:14:24.667Z,33.80
2023-01-18T16:19:35.012Z,34.53
2023-01-18T16:24:46.582Z,33.77
2023-01-18T16:29:51.271Z,33.45
2023-01-18T16:34:55.931Z,35.00
2023-01-18T16:40:01.148Z,34.13
2023-01-18T16:45:04.359Z,34.33
2023-01-18T16:50:16.200Z,36.30
2023-01-18T16:55:20.796Z,35.35
2023-01-18T17:00:26.768Z,40.47
2023-01-18T17:05:30.759Z,35.93
2023-01-18T17:10:39.025Z,34.83
2023-01-18T17:15:43.899Z,33.87
2023-01-18T17:20:46.799Z,33.57
2023-01-18T17:25:52.223Z,34.07
2023-01-18T17:30:55.731Z,34.63
2023-01-18T17:35:59.248Z,33.63
2023-01-18T17:41:03.588Z,33.73
2023-01-18T17:46:07.695Z,32.63
2023-01-18T17:51:13.171Z,33.67
2023-01-18T17:56:18.769Z,34.27
2023-01-18T18:01:22.258Z,43.03
2023-01-18T18:06:31.406Z,36.20
2023-01-18T18:11:36.039Z,34.80
2023-01-18T18:16:43.420Z,34.77
2023-01-18T18:21:46.837Z,34.67
2023-01-18T18:26:56.110Z,34.87
2023-01-18T18:31:59.241Z,35.50
2023-01-18T18:37:02.848Z,43.83
2023-01-18T18:42:07.133Z,40.57
2023-01-18T18:47:15.917Z,44.23
2023-01-18T18:52:18.800Z,49.83
2023-01-18T18:57:26.519Z,34.27
2023-01-18T19:02:29.786Z,35.93
2023-01-18T19:07:51.104Z,43.37
2023-01-18T19:12:55.747Z,41.90
2023-01-18T19:17:59.710Z,38.17
2023-01-18T19:23:02.954Z,35.03
2023-01-18T19:28:07.595Z,34.47
2023-01-18T19:33:11.034Z,36.07
2023-01-18T19:38:14.630Z,35.63
2023-01-18T19:43:19.810Z,37.47
2023-01-18T19:48:24.811Z,37.30
2023-01-18T19:53:30.901Z,34.13
2023-01-18T19:58:37.131Z,34.13
2023-01-18T20:03:40.253Z,34.17
2023-01-18T20:08:43.524Z,33.60
2023-01-18T20:13:51.233Z,33.23
2023-01-18T20:18:54.433Z,33.77
2023-01-18T20:23:57.883Z,34.07
2023-01-18T20:29:02.829Z,32.00
2023-01-18T20:34:06.711Z,33.67
2023-01-18T20:39:10.809Z,33.37
2023-01-18T20:44:15.048Z,33.90
2023-01-18T20:49:22.549Z,33.57
2023-01-18T20:54:30.159Z,34.07
2023-01-18T20:59:34.495Z,33.30
2023-01-18T21:04:37.565Z,33.67
2023-01-18T21:09:40.470Z,34.00
2023-01-18T21:14:44.826Z,33.40
2023-01-18T21:19:47.724Z,33.37
2023-01-18T21:24:50.585Z,34.00
2023-01-18T21:29:54.802Z,33.63
2023-01-18T21:34:57.672Z,33.67
2023-01-18T21:40:00.664Z,33.90
2023-01-18T21:45:22.919Z,34.67
2023-01-18T21:50:43.374Z,34.33
2023-01-18T21:55:46.269Z,33.80
2023-01-18T22:00:50.584Z,34.23
2023-01-18T22:05:53.524Z,33.30
2023-01-18T22:10:56.415Z,33.17
2023-01-18T22:16:07.026Z,33.43
2023-01-18T22:21:09.940Z,33.20
2023-01-18T22:26:13.447Z,33.20
2023-01-18T22:31:18.081Z,32.43
2023-01-18T22:36:20.984Z,34.60
2023-01-18T22:41:26.754Z,33.17
2023-01-18T22:46:31.069Z,33.17
2023-01-18T22:51:35.355Z,32.27
2023-01-18T22:56:38.286Z,32.63
2023-01-18T23:01:42.631Z,33.30
2023-01-18T23:06:47.828Z,32.17
2023-01-18T23:11:51.634Z,32.70
2023-01-18T23:17:13.346Z,32.30
2023-01-18T23:22:16.229Z,33.20
2023-01-18T23:27:19.139Z,32.30
2023-01-18T23:32:26.696Z,32.10
2023-01-18T23:37:30.047Z,32.40
2023-01-18T23:42:50.503Z,32.83
2023-01-18T23:48:12.132Z,32.53
2023-01-18T23:53:33.454Z,33.30
2023-01-18T23:58:36.389Z,32.93
